Time;durP1;ratioP1;P1;durP2;ratioP2;P2;SDS_P1;SDS_P2;PMS_P1;PMS_P2;Temp;Humidity;BMP_temperature;BMP_pressure;BME280_temperature;BME280_humidity;BME280_pressure;Samples;Min_cycle;Max_cycle;Signal;HPM_P1;HPM_P2
2021/01/08 00:02:21;;;;;;;25.27;16.27;;;;;;;-1.80;87.59;95172.53;5083879;28;20984;-74
2021/01/08 00:04:48;;;;;;;16.83;13.83;;;;;;;-1.81;87.83;95176.88;5080642;28;20495;-74
2021/01/08 00:07:15;;;;;;;17.77;14.60;;;;;;;-1.83;88.00;95183.09;5068637;28;20475;-75
2021/01/08 00:09:42;;;;;;;13.90;12.13;;;;;;;-1.80;88.25;95175.13;5082150;28;20491;-75
2021/01/08 00:12:09;;;;;;;15.40;12.63;;;;;;;-1.71;88.11;95182.16;5079879;28;20560;-74
2021/01/08 00:14:37;;;;;;;15.30;12.37;;;;;;;-1.64;87.91;95183.31;5083043;28;20459;-74
2021/01/08 00:17:04;;;;;;;18.33;14.33;;;;;;;-1.69;87.75;95175.09;5084168;28;20512;-74
2021/01/08 00:19:31;;;;;;;16.30;12.97;;;;;;;-1.70;87.54;95173.44;5078460;28;20529;-74
2021/01/08 00:21:58;;;;;;;17.27;13.33;;;;;;;-1.70;87.85;95173.44;5077759;28;20472;-74
2021/01/08 00:24:25;;;;;;;13.70;12.20;;;;;;;-1.76;87.43;95173.94;5082438;28;21126;-74
2021/01/08 00:26:54;;;;;;;16.43;13.80;;;;;;;-1.74;87.71;95172.88;5085896;28;21029;-75
2021/01/08 00:29:21;;;;;;;15.33;12.00;;;;;;;-1.73;87.49;95174.53;5081168;28;20567;-75
2021/01/08 00:31:49;;;;;;;21.67;14.97;;;;;;;-1.61;87.69;95164.16;5088112;28;20483;-75
2021/01/08 00:34:18;;;;;;;15.07;12.70;;;;;;;-1.67;87.47;95170.63;5086865;28;20470;-75
2021/01/08 00:36:49;;;;;;;15.03;11.77;;;;;;;-1.69;87.52;95175.09;5065745;28;20497;-75
2021/01/08 00:39:17;;;;;;;17.03;13.07;;;;;;;-1.62;87.08;95176.25;5076058;28;20477;-75
2021/01/08 00:41:44;;;;;;;18.20;12.83;;;;;;;-1.63;85.99;95168.63;5074831;28;20481;-74
2021/01/08 00:44:12;;;;;;;18.00;13.83;;;;;;;-1.67;86.13;95178.38;5060925;28;20480;-74
2021/01/08 00:46:41;;;;;;;15.73;12.90;;;;;;;-1.54;85.84;95183.41;5085981;28;20466;-74
2021/01/08 00:49:10;;;;;;;14.27;12.07;;;;;;;-1.52;85.75;95176.34;5068798;28;20479;-74
2021/01/08 00:51:38;;;;;;;14.80;12.17;;;;;;;-1.56;85.70;95169.75;5066536;28;20520;-74
2021/01/08 00:54:07;;;;;;;18.70;12.40;;;;;;;-1.55;85.85;95174.84;5067883;28;21061;-74
2021/01/08 00:56:35;;;;;;;16.70;13.27;;;;;;;-1.55;85.75;95187.78;5069742;28;20460;-75
2021/01/08 00:59:17;;;;;;;14.67;12.50;;;;;;;-1.45;85.63;95188.69;5068824;28;20980;-74
2021/01/08 01:01:44;;;;;;;19.63;13.37;;;;;;;-1.44;85.31;95187.72;5082014;28;20493;-74
2021/01/08 01:04:12;;;;;;;16.27;13.60;;;;;;;-1.47;85.46;95189.72;5075873;28;20545;-74
2021/01/08 01:06:40;;;;;;;14.37;11.90;;;;;;;-1.39;85.32;95183.94;5067893;28;20549;-74
2021/01/08 01:09:08;;;;;;;15.13;11.70;;;;;;;-1.50;85.05;95180.44;5084932;28;20456;-74
2021/01/08 01:11:35;;;;;;;14.40;11.93;;;;;;;-1.49;85.48;95184.69;5068176;28;20474;-75
2021/01/08 01:14:02;;;;;;;16.07;13.13;;;;;;;-1.60;85.50;95189.06;5075965;28;20510;-74
2021/01/08 01:16:29;;;;;;;12.70;11.33;;;;;;;-1.48;85.52;95194.06;5083315;28;20456;-75
2021/01/08 01:18:57;;;;;;;13.17;11.13;;;;;;;-1.44;85.38;95194.69;5077407;28;20480;-75
2021/01/08 01:21:27;;;;;;;18.57;13.67;;;;;;;-1.37;85.21;95200.16;5084684;28;20761;-75
2021/01/08 01:23:54;;;;;;;14.07;11.87;;;;;;;-1.34;84.75;95195.59;5078471;28;20472;-75
2021/01/08 01:26:22;;;;;;;13.80;12.13;;;;;;;-1.33;84.32;95194.63;5068687;28;20464;-75
2021/01/08 01:28:49;;;;;;;12.40;11.07;;;;;;;-1.39;84.98;95196.88;5081707;28;20879;-75
2021/01/08 01:31:16;;;;;;;17.67;13.30;;;;;;;-1.34;85.07;95197.34;5086070;28;20922;-75
2021/01/08 01:33:43;;;;;;;17.83;12.90;;;;;;;-1.34;84.73;95205.13;5081840;28;20480;-74
2021/01/08 01:36:11;;;;;;;19.23;13.73;;;;;;;-1.31;84.84;95204.84;5080864;28;20470;-74
2021/01/08 01:38:39;;;;;;;14.17;12.27;;;;;;;-1.35;85.01;95206.06;5085836;28;20464;-75
2021/01/08 01:41:06;;;;;;;17.93;15.30;;;;;;;-1.32;84.80;95208.41;5081889;28;20467;-75
2021/01/08 01:43:33;;;;;;;15.13;11.73;;;;;;;-1.36;84.46;95201.84;5081912;28;20464;-75
2021/01/08 01:46:01;;;;;;;21.67;14.87;;;;;;;-1.34;84.56;95205.94;5084405;28;20863;-75
2021/01/08 01:48:28;;;;;;;15.93;14.07;;;;;;;-1.42;84.67;95212.66;5063129;28;20566;-75
2021/01/08 01:50:55;;;;;;;16.03;13.37;;;;;;;-1.39;84.77;95212.41;5084164;28;20517;-74
2021/01/08 01:53:23;;;;;;;15.93;12.43;;;;;;;-1.45;84.68;95211.97;5083068;28;20467;-75
2021/01/08 01:55:51;;;;;;;15.20;13.33;;;;;;;-1.46;84.77;95210.34;5085303;28;20515;-75
2021/01/08 01:58:19;;;;;;;18.80;13.63;;;;;;;-1.38;85.18;95211.47;5079327;28;20522;-75
2021/01/08 02:00:46;;;;;;;18.33;13.57;;;;;;;-1.53;85.44;95216.09;5080769;28;21044;-74
2021/01/08 02:03:20;;;;;;;16.93;11.90;;;;;;;-1.38;84.78;95214.88;5084637;28;20471;-75
2021/01/08 02:05:49;;;;;;;18.20;12.90;;;;;;;-1.36;84.42;95213.00;5083398;28;20885;-75
2021/01/08 02:08:20;;;;;;;16.27;12.80;;;;;;;-1.57;85.17;95215.50;5085955;28;20609;-75
2021/01/08 02:10:54;;;;;;;18.17;12.70;;;;;;;-1.66;86.16;95216.22;5084959;28;20463;-75
2021/01/08 02:13:25;;;;;;;17.80;13.13;;;;;;;-1.73;86.79;95215.09;5078699;28;20517;-75
2021/01/08 02:15:55;;;;;;;15.57;12.23;;;;;;;-1.75;86.92;95216.94;5067728;28;20516;-75
2021/01/08 02:18:24;;;;;;;19.43;14.03;;;;;;;-1.75;86.77;95217.78;5085637;28;21027;-75
2021/01/08 02:20:52;;;;;;;18.17;13.17;;;;;;;-1.64;86.67;95219.53;5081692;28;20528;-74
2021/01/08 02:23:25;;;;;;;18.27;13.73;;;;;;;-1.61;86.40;95216.69;5082734;28;20529;-75
2021/01/08 02:25:54;;;;;;;17.57;14.20;;;;;;;-1.56;86.20;95214.56;5085283;28;20456;-75
2021/01/08 02:28:24;;;;;;;18.23;13.37;;;;;;;-1.65;86.74;95214.47;5067522;28;20525;-75
2021/01/08 02:30:52;;;;;;;15.47;13.50;;;;;;;-1.64;87.19;95213.53;5065939;28;20503;-74
2021/01/08 02:33:21;;;;;;;20.10;14.13;;;;;;;-1.58;86.81;95213.88;5085313;28;20464;-75
2021/01/08 02:35:49;;;;;;;24.53;14.17;;;;;;;-1.67;87.33;95214.59;5084019;28;20464;-75
2021/01/08 02:38:20;;;;;;;21.47;14.53;;;;;;;-1.63;87.02;95210.84;5074890;28;20483;-75
2021/01/08 02:40:49;;;;;;;17.10;11.87;;;;;;;-1.67;86.71;95214.59;5082609;28;21136;-75
2021/01/08 02:43:22;;;;;;;16.10;13.77;;;;;;;-1.58;86.50;95203.50;5076894;28;20475;-75
2021/01/08 02:45:49;;;;;;;13.53;12.17;;;;;;;-1.71;86.52;95205.44;5066263;28;20543;-75
2021/01/08 02:48:16;;;;;;;18.60;14.03;;;;;;;-1.87;86.79;95207.56;5070631;28;20463;-75
2021/01/08 02:50:44;;;;;;;18.60;13.83;;;;;;;-1.91;87.25;95204.41;5078381;28;20525;-75
2021/01/08 02:53:13;;;;;;;17.00;13.17;;;;;;;-1.93;87.42;95208.03;5079902;28;20467;-75
2021/01/08 02:55:46;;;;;;;17.13;13.00;;;;;;;-1.99;87.69;95209.34;5055059;28;20464;-75
2021/01/08 02:58:13;;;;;;;15.23;13.63;;;;;;;-1.81;87.04;95191.59;5085310;28;20467;-74
2021/01/08 03:00:42;;;;;;;17.33;13.13;;;;;;;-1.81;86.52;95207.09;5079655;28;20805;-74
2021/01/08 03:03:10;;;;;;;16.33;13.87;;;;;;;-1.72;86.34;95201.22;5085635;28;20462;-75
2021/01/08 03:05:37;;;;;;;14.23;12.70;;;;;;;-1.77;86.31;95203.31;5063393;28;20519;-75
2021/01/08 03:08:05;;;;;;;20.23;13.00;;;;;;;-1.84;86.27;95207.31;5083047;28;20828;-75
2021/01/08 03:10:32;;;;;;;12.43;11.13;;;;;;;-1.78;86.77;95199.09;5061598;28;20995;-75
2021/01/08 03:13:02;;;;;;;15.50;13.07;;;;;;;-1.74;86.46;95203.06;5080896;28;21242;-75
2021/01/08 03:15:29;;;;;;;16.50;13.20;;;;;;;-1.72;86.27;95203.81;5080543;28;20460;-75
2021/01/08 03:17:57;;;;;;;17.73;13.10;;;;;;;-1.96;87.03;95197.94;5086213;28;21023;-75
2021/01/08 03:20:24;;;;;;;16.03;12.47;;;;;;;-1.92;86.57;95199.34;5084032;28;20521;-75
2021/01/08 03:22:51;;;;;;;18.07;12.70;;;;;;;-1.90;86.71;95194.91;5086305;28;20471;-75
2021/01/08 03:25:18;;;;;;;18.77;13.43;;;;;;;-1.85;87.03;95200.50;5086907;28;20465;-75
2021/01/08 03:27:45;;;;;;;17.60;12.27;;;;;;;-1.92;86.90;95196.75;5063154;28;21097;-75
2021/01/08 03:30:13;;;;;;;16.10;12.03;;;;;;;-1.95;87.22;95197.00;5076325;28;20460;-73
2021/01/08 03:32:40;;;;;;;23.47;14.80;;;;;;;-1.99;87.37;95204.19;5084831;28;20502;-75
2021/01/08 03:35:09;;;;;;;16.10;12.73;;;;;;;-1.94;87.41;95201.22;5078402;28;20467;-75
2021/01/08 03:37:37;;;;;;;16.47;12.60;;;;;;;-1.82;86.94;95200.28;5057516;28;20465;-75
2021/01/08 03:40:07;;;;;;;11.90;10.70;;;;;;;-1.64;85.91;95196.25;5065157;28;20460;-75
2021/01/08 03:42:34;;;;;;;15.00;12.57;;;;;;;-1.75;85.70;95206.59;5078094;28;21177;-75
2021/01/08 03:45:01;;;;;;;16.00;11.00;;;;;;;-1.74;86.00;95196.16;5078300;28;20618;-75
2021/01/08 03:47:27;;;;;;;13.17;11.67;;;;;;;-1.87;86.31;95195.47;5078847;28;20534;-75
2021/01/08 03:49:55;;;;;;;13.30;10.90;;;;;;;-1.94;86.77;95190.88;5075454;28;20472;-75
2021/01/08 03:52:23;;;;;;;15.30;11.87;;;;;;;-1.98;87.22;95194.66;5082232;28;20464;-75
2021/01/08 03:54:50;;;;;;;15.43;11.20;;;;;;;-2.03;87.33;95195.81;5084827;28;20472;-75
2021/01/08 03:57:16;;;;;;;17.33;11.50;;;;;;;-1.97;87.32;95201.47;5085239;28;20967;-75
2021/01/08 03:59:43;;;;;;;14.93;12.43;;;;;;;-1.92;86.92;95194.16;5080294;28;20522;-75
2021/01/08 04:02:10;;;;;;;15.30;13.53;;;;;;;-1.86;86.79;95198.88;5081127;28;20503;-75
2021/01/08 04:04:38;;;;;;;14.43;13.13;;;;;;;-1.91;86.70;95196.66;5082117;28;20463;-75
2021/01/08 04:07:05;;;;;;;11.80;10.57;;;;;;;-1.92;86.84;95194.16;5064879;28;20456;-75
2021/01/08 04:09:33;;;;;;;18.17;13.70;;;;;;;-1.97;86.94;95191.13;5069270;28;20555;-75
2021/01/08 04:12:00;;;;;;;16.40;11.57;;;;;;;-1.92;86.78;95194.16;5083855;28;21177;-75
2021/01/08 04:14:27;;;;;;;14.73;11.33;;;;;;;-1.95;86.80;95197.00;5083249;28;20488;-75
2021/01/08 04:16:54;;;;;;;16.57;13.33;;;;;;;-2.03;87.26;95188.06;5084678;28;20460;-75
2021/01/08 04:19:21;;;;;;;14.97;13.37;;;;;;;-2.06;87.62;95193.50;5084918;28;20483;-75
2021/01/08 04:21:50;;;;;;;13.33;10.87;;;;;;;-2.01;87.53;95191.38;5088113;28;20464;-75
2021/01/08 04:24:17;;;;;;;15.77;12.83;;;;;;;-2.09;87.44;95196.31;5087270;28;20509;-75
2021/01/08 04:26:44;;;;;;;17.23;11.97;;;;;;;-2.15;87.51;95189.03;5088953;28;20463;-75
2021/01/08 04:29:11;;;;;;;14.60;10.73;;;;;;;-2.11;87.80;95200.75;5080429;28;20460;-75
2021/01/08 04:31:38;;;;;;;16.10;12.40;;;;;;;-2.06;88.05;95201.25;5070343;28;20455;-75
2021/01/08 04:34:05;;;;;;;13.80;11.97;;;;;;;-2.09;87.86;95198.09;5088394;28;21039;-76
2021/01/08 04:36:32;;;;;;;14.77;11.00;;;;;;;-2.02;87.67;95194.88;5073998;28;20519;-75
2021/01/08 04:38:59;;;;;;;19.07;12.77;;;;;;;-2.04;87.26;95204.53;5088117;28;20560;-75
2021/01/08 04:41:28;;;;;;;12.73;10.40;;;;;;;-1.99;86.94;95208.53;5085232;28;20550;-74
2021/01/08 04:43:55;;;;;;;13.33;12.10;;;;;;;-2.05;86.53;95215.00;5077943;28;20549;-75
2021/01/08 04:46:28;;;;;;;14.93;12.47;;;;;;;-1.95;85.88;95195.22;5067729;28;20459;-75
2021/01/08 04:48:58;;;;;;;11.73;9.70;;;;;;;-1.94;86.20;95199.47;5073542;28;20552;-75
2021/01/08 04:51:26;;;;;;;12.93;10.93;;;;;;;-2.02;86.31;95205.22;5073052;28;20895;-75
2021/01/08 04:53:53;;;;;;;15.90;11.93;;;;;;;-1.93;86.17;95187.34;5067579;28;20505;-75
2021/01/08 04:56:25;;;;;;;17.37;11.63;;;;;;;-2.02;86.41;95197.47;5087701;28;21240;-75
2021/01/08 04:58:53;;;;;;;14.07;11.50;;;;;;;-2.08;86.67;95205.72;5078236;28;20465;-75
2021/01/08 05:01:21;;;;;;;15.20;11.30;;;;;;;-2.11;86.69;95208.50;5072264;28;20489;-75
2021/01/08 05:03:48;;;;;;;17.63;14.57;;;;;;;-2.22;87.16;95207.69;5068009;28;20468;-74
2021/01/08 05:06:15;;;;;;;18.90;12.43;;;;;;;-2.29;87.73;95202.16;5087064;28;20493;-75
2021/01/08 05:08:42;;;;;;;16.30;13.77;;;;;;;-2.26;88.07;95201.13;5085822;28;20521;-75
2021/01/08 05:11:22;;;;;;;14.37;12.10;;;;;;;-2.27;88.46;95205.47;5080482;28;21188;-75
2021/01/08 05:13:54;;;;;;;16.17;13.40;;;;;;;-2.26;88.42;95201.97;5087117;28;20460;-75
2021/01/08 05:16:24;;;;;;;16.97;14.13;;;;;;;-2.20;88.62;95198.88;5067288;28;20455;-75
2021/01/08 05:18:52;;;;;;;16.83;13.00;;;;;;;-2.12;89.02;95199.13;5087500;28;20467;-75
2021/01/08 05:21:19;;;;;;;13.70;12.33;;;;;;;-2.08;88.73;95203.13;5070530;28;20834;-75
2021/01/08 05:23:48;;;;;;;18.73;12.33;;;;;;;-2.01;88.16;95200.91;5050554;28;20546;-75
2021/01/08 05:26:15;;;;;;;14.30;12.03;;;;;;;-2.02;88.05;95205.22;5087424;28;20850;-75
2021/01/08 05:28:49;;;;;;;14.73;11.90;;;;;;;-1.98;87.85;95198.06;5082881;28;20503;-75
2021/01/08 05:31:17;;;;;;;15.63;12.37;;;;;;;-1.99;88.01;95205.94;5082193;28;20466;-75
2021/01/08 05:33:46;;;;;;;15.50;11.63;;;;;;;-1.90;88.02;95202.66;5078776;28;20464;-75
2021/01/08 05:36:13;;;;;;;14.37;12.67;;;;;;;-1.95;87.88;95207.34;5066702;28;20486;-75
2021/01/08 05:38:42;;;;;;;18.17;12.93;;;;;;;-1.94;87.74;95201.22;5066571;28;20457;-75
2021/01/08 05:41:10;;;;;;;21.73;14.43;;;;;;;-1.87;87.41;95194.66;5057982;28;20467;-75
2021/01/08 05:43:39;;;;;;;19.43;14.23;;;;;;;-1.90;87.16;95203.47;5063872;28;20896;-75
2021/01/08 05:46:10;;;;;;;16.50;12.33;;;;;;;-1.94;87.06;95214.16;5082015;28;20484;-75
2021/01/08 05:48:40;;;;;;;17.00;15.23;;;;;;;-1.94;87.14;95211.56;5086796;28;20517;-75
2021/01/08 05:51:09;;;;;;;17.43;11.93;;;;;;;-1.98;87.54;95215.34;5081822;28;20525;-75
2021/01/08 05:53:37;;;;;;;19.03;12.70;;;;;;;-1.96;87.19;95216.03;5083917;28;20518;-75
2021/01/08 05:56:05;;;;;;;17.67;12.37;;;;;;;-2.05;86.55;95215.81;5085406;28;20497;-75
2021/01/08 05:58:33;;;;;;;15.43;11.40;;;;;;;-2.25;86.53;95210.53;5068188;28;20476;-75
2021/01/08 06:01:01;;;;;;;15.23;13.53;;;;;;;-2.28;86.81;95209.00;5079456;28;20526;-75
2021/01/08 06:03:28;;;;;;;15.43;11.77;;;;;;;-2.28;86.53;95210.78;5066007;28;20472;-75
2021/01/08 06:05:56;;;;;;;21.23;13.40;;;;;;;-2.42;86.64;95216.97;5065872;28;20472;-74
2021/01/08 06:08:26;;;;;;;16.47;13.90;;;;;;;-2.47;87.09;95219.06;5080045;28;20547;-74
2021/01/08 06:10:54;;;;;;;14.17;11.73;;;;;;;-2.59;87.62;95215.66;5085245;28;20457;-74
2021/01/08 06:13:24;;;;;;;18.40;14.67;;;;;;;-2.54;87.82;95217.91;5086169;28;20509;-74
2021/01/08 06:15:53;;;;;;;22.10;14.17;;;;;;;-2.46;88.57;95229.31;5068449;28;20464;-74
2021/01/08 06:18:23;;;;;;;15.07;12.53;;;;;;;-2.37;88.91;95220.03;5069999;28;21062;-74
2021/01/08 06:20:52;;;;;;;19.57;16.17;;;;;;;-2.32;88.65;95220.50;5083849;28;20797;-74
2021/01/08 06:23:33;;;;;;;15.93;13.40;;;;;;;-2.15;87.91;95229.56;5074601;28;20475;-74
2021/01/08 06:26:05;;;;;;;18.40;14.00;;;;;;;-2.20;87.92;95226.50;5085974;28;20467;-74
2021/01/08 06:28:38;;;;;;;19.37;13.20;;;;;;;-2.07;87.97;95233.22;5078458;28;20534;-75
2021/01/08 06:31:24;;;;;;;17.77;13.27;;;;;;;-2.01;87.53;95227.56;5078939;28;20472;-74
2021/01/08 06:33:53;;;;;;;13.87;11.07;;;;;;;-2.02;87.07;95236.25;5084351;28;20455;-74
2021/01/08 06:36:24;;;;;;;18.67;15.60;;;;;;;-1.95;87.11;95231.44;5072529;28;20468;-74
2021/01/08 06:38:54;;;;;;;15.40;12.47;;;;;;;-1.94;86.75;95232.25;5065448;28;20518;-74
2021/01/08 06:41:22;;;;;;;13.97;12.57;;;;;;;-2.06;87.38;95236.63;5065305;28;20514;-74
2021/01/08 06:43:55;;;;;;;15.60;12.87;;;;;;;-2.06;87.50;95239.19;5079891;28;20529;-74
2021/01/08 06:46:28;;;;;;;15.17;12.57;;;;;;;-2.05;87.62;95240.84;5085757;28;20972;-70
2021/01/08 06:48:56;;;;;;;14.37;11.60;;;;;;;-1.99;87.82;95231.81;5080261;28;20495;-69
2021/01/08 06:51:26;;;;;;;15.47;11.77;;;;;;;-1.93;87.71;95244.25;5080598;28;21207;-70
2021/01/08 06:53:57;;;;;;;14.67;13.13;;;;;;;-1.93;87.11;95245.06;5077199;28;20483;-69
2021/01/08 06:56:32;;;;;;;17.30;11.30;;;;;;;-2.05;87.08;95240.84;5085635;28;20525;-70
2021/01/08 06:59:00;;;;;;;11.03;9.70;;;;;;;-2.10;87.58;95248.97;5064639;28;20521;-70
2021/01/08 07:01:46;;;;;;;15.17;11.03;;;;;;;-2.06;87.48;95242.59;5053369;28;20501;-70
2021/01/08 07:04:14;;;;;;;14.83;12.10;;;;;;;-1.95;86.98;95246.13;5080916;28;20456;-70
2021/01/08 07:06:42;;;;;;;12.17;10.87;;;;;;;-1.95;86.87;95251.28;5084026;28;20544;-70
2021/01/08 07:09:10;;;;;;;14.43;12.93;;;;;;;-2.05;87.43;95252.00;5082126;28;20530;-70
2021/01/08 07:11:37;;;;;;;18.63;14.37;;;;;;;-2.04;87.70;95253.66;5077562;28;20524;-70
2021/01/08 07:14:09;;;;;;;14.07;11.60;;;;;;;-1.96;87.46;95249.66;5083169;28;20836;-69
2021/01/08 07:16:42;;;;;;;14.03;11.33;;;;;;;-2.06;87.32;95245.19;5076136;28;20561;-70
2021/01/08 07:19:11;;;;;;;13.63;11.40;;;;;;;-2.03;87.17;95250.13;5061400;28;20492;-70
2021/01/08 07:21:43;;;;;;;16.00;12.33;;;;;;;-1.98;86.81;95246.38;5080961;28;20468;-70
2021/01/08 07:24:15;;;;;;;9.87;8.87;;;;;;;-1.95;86.65;95246.94;5077558;28;20480;-70
2021/01/08 07:26:43;;;;;;;14.27;11.43;;;;;;;-1.98;86.41;95259.31;5079780;28;20457;-70
2021/01/08 07:29:10;;;;;;;15.10;12.17;;;;;;;-2.02;86.66;95259.50;5078592;28;20574;-70
2021/01/08 07:31:38;;;;;;;14.60;10.20;;;;;;;-1.98;87.04;95256.72;5064529;28;20989;-70
2021/01/08 07:34:08;;;;;;;13.70;10.30;;;;;;;-1.99;86.64;95262.81;5063801;28;20472;-70
2021/01/08 07:36:36;;;;;;;11.43;10.33;;;;;;;-2.11;86.97;95261.97;5063202;28;20536;-70
2021/01/08 07:39:05;;;;;;;13.30;11.03;;;;;;;-2.06;87.31;95262.47;5083034;28;20467;-70
2021/01/08 07:41:38;;;;;;;16.33;11.87;;;;;;;-1.94;86.98;95263.28;5063582;28;20588;-70
2021/01/08 07:44:32;;;;;;;14.80;12.07;;;;;;;-1.96;86.84;95262.59;5075758;28;20463;-70
2021/01/08 07:47:20;;;;;;;15.80;11.63;;;;;;;-1.98;86.86;95272.22;5065031;28;20500;-70
2021/01/08 07:50:10;;;;;;;16.63;11.53;;;;;;;-1.98;86.67;95277.41;5063625;28;20460;-70
2021/01/08 07:52:39;;;;;;;12.27;9.77;;;;;;;-1.96;86.53;95266.00;5062670;28;20468;-69
2021/01/08 07:55:07;;;;;;;17.47;11.83;;;;;;;-1.89;85.92;95281.88;5088560;28;20491;-70
2021/01/08 07:58:03;;;;;;;12.77;10.10;;;;;;;-1.81;86.31;95280.34;5082401;28;20478;-69
2021/01/08 08:00:31;;;;;;;15.30;11.03;;;;;;;-1.74;85.85;95286.69;5078299;28;20471;-70
2021/01/08 08:03:00;;;;;;;14.00;10.67;;;;;;;-1.75;86.07;95294.53;5059984;28;20459;-70
2021/01/08 08:05:27;;;;;;;9.37;8.03;;;;;;;-1.73;86.04;95288.34;5086266;28;20525;-70
2021/01/08 08:07:57;;;;;;;12.70;10.07;;;;;;;-1.61;86.07;95296.91;5081332;28;20552;-69
2021/01/08 08:10:25;;;;;;;14.67;9.80;;;;;;;-1.53;85.23;95299.72;5075183;28;20467;-70
2021/01/08 08:12:53;;;;;;;13.50;8.90;;;;;;;-1.50;84.55;95298.66;5065616;28;20444;-70
2021/01/08 08:15:21;;;;;;;10.27;8.67;;;;;;;-1.49;84.91;95305.47;5082054;28;20471;-70
2021/01/08 08:17:49;;;;;;;10.77;9.67;;;;;;;-1.46;84.81;95305.25;5078211;28;20510;-70
2021/01/08 08:20:20;;;;;;;11.57;10.37;;;;;;;-1.51;85.11;95304.78;5086427;28;20493;-70
2021/01/08 08:22:47;;;;;;;11.07;9.97;;;;;;;-1.35;84.68;95309.59;5073331;28;20469;-70
2021/01/08 08:25:31;;;;;;;12.80;9.70;;;;;;;-1.29;84.59;95302.13;5067747;28;20469;-72
2021/01/08 08:27:59;;;;;;;10.70;9.23;;;;;;;-1.15;83.77;95308.84;5075525;28;20499;-72
2021/01/08 08:30:28;;;;;;;11.90;9.23;;;;;;;-1.11;83.83;95314.59;5076599;28;20464;-72
2021/01/08 08:32:56;;;;;;;13.37;10.93;;;;;;;-1.01;82.80;95310.31;5070596;28;20468;-72
2021/01/08 08:35:23;;;;;;;12.23;10.23;;;;;;;-0.99;82.60;95311.88;5083590;28;20487;-72
2021/01/08 08:37:52;;;;;;;11.33;9.17;;;;;;;-1.00;82.27;95318.00;5069635;28;20926;-69
2021/01/08 08:40:25;;;;;;;10.87;8.40;;;;;;;-0.92;82.32;95315.59;5082153;28;20467;-69
2021/01/08 08:42:55;;;;;;;9.90;8.90;;;;;;;-1.00;82.80;95315.41;5069507;28;20481;-70
2021/01/08 08:45:25;;;;;;;10.23;8.73;;;;;;;-1.00;82.88;95309.41;5073070;28;20476;-70
2021/01/08 08:47:55;;;;;;;11.17;9.30;;;;;;;-0.91;82.90;95314.66;5077595;28;20868;-70
2021/01/08 08:50:23;;;;;;;11.57;10.17;;;;;;;-0.86;82.30;95312.50;5068636;28;20553;-69
2021/01/08 08:52:51;;;;;;;9.87;8.80;;;;;;;-0.87;82.26;95315.22;5081786;28;21248;-70
2021/01/08 08:55:29;;;;;;;11.27;8.63;;;;;;;-0.77;81.89;95313.53;5079594;28;20496;-70
2021/01/08 08:58:03;;;;;;;9.90;8.83;;;;;;;-0.68;81.00;95311.97;5083246;28;20475;-69
2021/01/08 09:00:31;;;;;;;14.20;10.00;;;;;;;-0.82;81.13;95317.44;5073976;28;20560;-69
2021/01/08 09:02:59;;;;;;;11.30;9.87;;;;;;;-0.76;81.11;95314.38;5081974;28;20491;-70
2021/01/08 09:05:30;;;;;;;11.40;8.53;;;;;;;-0.70;81.86;95319.88;5070557;28;20497;-70
2021/01/08 09:08:09;;;;;;;12.93;9.90;;;;;;;-0.58;80.56;95318.06;5075371;28;20477;-70
2021/01/08 09:10:41;;;;;;;11.67;10.57;;;;;;;-0.57;80.79;95319.72;5067381;28;20493;-70
2021/01/08 09:13:12;;;;;;;11.47;9.73;;;;;;;-0.57;80.49;95315.34;5079100;28;20602;-70
2021/01/08 09:15:56;;;;;;;15.50;9.47;;;;;;;-0.50;80.42;95313.09;5069366;28;20474;-70
2021/01/08 09:18:34;;;;;;;10.10;9.07;;;;;;;-0.35;80.23;95314.44;5070128;28;20503;-70
2021/01/08 09:21:07;;;;;;;11.47;8.77;;;;;;;-0.37;80.30;95311.13;5071815;28;20494;-70
2021/01/08 09:23:37;;;;;;;11.87;9.03;;;;;;;-0.23;79.08;95317.78;5063424;28;20465;-70
2021/01/08 09:26:05;;;;;;;11.43;10.23;;;;;;;-0.27;79.56;95316.41;5078617;28;20218;-70
2021/01/08 09:28:42;;;;;;;12.50;9.70;;;;;;;-0.26;79.23;95312.84;5081237;28;20482;-70
2021/01/08 09:31:09;;;;;;;12.43;11.30;;;;;;;-0.23;79.10;95317.78;5077629;28;20630;-70
2021/01/08 09:33:38;;;;;;;8.53;7.73;;;;;;;-0.11;78.53;95323.72;5080404;28;20474;-70
2021/01/08 09:36:05;;;;;;;10.40;9.40;;;;;;;-0.17;78.25;95319.06;5077892;28;20469;-70
2021/01/08 09:38:33;;;;;;;10.80;8.93;;;;;;;-0.30;78.44;95321.81;5083022;28;20472;-70
2021/01/08 09:41:01;;;;;;;9.60;8.57;;;;;;;-0.29;79.00;95328.66;5068609;28;20468;-70
2021/01/08 09:43:29;;;;;;;10.53;8.17;;;;;;;-0.46;79.90;95317.06;5075618;28;20470;-69
2021/01/08 09:46:06;;;;;;;10.63;9.53;;;;;;;-0.42;79.74;95323.66;5072745;28;20463;-70
2021/01/08 09:48:34;;;;;;;11.73;8.30;;;;;;;-0.38;79.56;95322.44;5083256;28;20499;-70
2021/01/08 09:51:04;;;;;;;9.63;8.57;;;;;;;-0.39;79.00;95325.16;5070548;28;20559;-70
2021/01/08 09:53:32;;;;;;;10.60;8.87;;;;;;;-0.26;78.98;95322.41;5077946;28;20472;-70
2021/01/08 09:56:13;;;;;;;11.53;8.30;;;;;;;-0.29;78.54;95328.66;5084111;28;20879;-70
2021/01/08 09:58:40;;;;;;;13.07;10.43;;;;;;;-0.37;78.74;95318.91;5079678;28;20481;-70
2021/01/08 10:01:08;;;;;;;11.47;8.83;;;;;;;-0.46;79.25;95317.06;5075863;28;20477;-70
2021/01/08 10:03:35;;;;;;;13.60;10.53;;;;;;;-0.52;79.90;95325.34;5080984;28;20500;-70
2021/01/08 10:06:09;;;;;;;11.60;9.80;;;;;;;-0.53;79.23;95321.13;5083776;28;20459;-70
2021/01/08 10:08:37;;;;;;;8.27;7.30;;;;;;;-0.43;79.13;95319.41;5075006;28;20768;-70
2021/01/08 10:11:05;;;;;;;10.97;8.87;;;;;;;-0.31;78.46;95321.00;5075123;28;20452;-70
2021/01/08 10:13:34;;;;;;;8.90;7.80;;;;;;;-0.18;77.80;95320.84;5080396;28;21358;-70
2021/01/08 10:16:08;;;;;;;11.60;9.73;;;;;;;-0.27;78.14;95324.19;5081365;28;20457;-70
2021/01/08 10:18:37;;;;;;;12.57;8.17;;;;;;;-0.24;77.71;95313.53;5078659;28;21158;-70
2021/01/08 10:21:06;;;;;;;9.00;8.10;;;;;;;-0.38;77.87;95322.44;5074134;28;20995;-70
2021/01/08 10:23:41;;;;;;;13.50;9.17;;;;;;;-0.44;78.51;95325.56;5065712;28;20491;-70
2021/01/08 10:26:12;;;;;;;9.57;8.60;;;;;;;-0.32;78.48;95321.94;5058283;28;20502;-70
2021/01/08 10:28:52;;;;;;;10.90;9.20;;;;;;;-0.44;78.62;95325.56;5079301;28;20525;-70
2021/01/08 10:31:20;;;;;;;11.10;8.27;;;;;;;-0.38;78.54;95325.03;5078727;28;20502;-69
2021/01/08 10:33:47;;;;;;;11.27;8.73;;;;;;;-0.21;77.35;95320.25;5080421;28;20495;-70
2021/01/08 10:36:15;;;;;;;12.03;10.50;;;;;;;-0.19;77.52;95320.94;5060147;28;20456;-70
2021/01/08 10:38:43;;;;;;;10.90;8.33;;;;;;;-0.25;78.48;95311.09;5078233;28;20472;-70
2021/01/08 10:41:15;;;;;;;8.90;8.10;;;;;;;-0.28;77.93;95314.72;5079806;28;20540;-70
2021/01/08 10:43:42;;;;;;;9.17;7.70;;;;;;;-0.17;78.33;95311.28;5076597;28;20554;-70
2021/01/08 10:46:11;;;;;;;9.10;8.30;;;;;;;-0.19;78.48;95313.16;5069207;28;20475;-70
2021/01/08 10:48:41;;;;;;;8.20;7.07;;;;;;;-0.18;77.62;95314.78;5077344;28;20491;-70
2021/01/08 10:51:08;;;;;;;7.97;6.50;;;;;;;-0.17;78.13;95311.28;5070186;28;20216;-70
2021/01/08 10:53:36;;;;;;;8.57;7.70;;;;;;;-0.18;78.03;95312.19;5075731;28;20791;-70
2021/01/08 10:56:04;;;;;;;11.33;8.07;;;;;;;-0.12;77.76;95309.09;5081939;28;20547;-70
2021/01/08 10:58:33;;;;;;;6.00;5.50;;;;;;;-0.14;77.58;95306.66;5082037;28;20551;-70
2021/01/08 11:01:01;;;;;;;8.00;7.20;;;;;;;0.03;77.27;95312.22;5085202;28;20548;-70
2021/01/08 11:03:28;;;;;;;8.07;6.30;;;;;;;-0.06;77.38;95309.44;5073307;28;20535;-70
2021/01/08 11:05:55;;;;;;;8.80;7.07;;;;;;;-0.15;77.09;95309.38;5083626;28;21238;-69
2021/01/08 11:08:21;;;;;;;7.60;6.90;;;;;;;-0.13;77.87;95292.72;5081036;28;20476;-70
2021/01/08 11:10:49;;;;;;;8.77;7.03;;;;;;;-0.08;77.43;95292.38;5059147;28;21329;-70
2021/01/08 11:13:16;;;;;;;5.90;5.43;;;;;;;0.04;76.98;95291.31;5077892;28;20908;-69
2021/01/08 11:15:43;;;;;;;7.80;6.13;;;;;;;0.32;76.14;95286.41;5083814;28;20504;-69
2021/01/08 11:18:10;;;;;;;6.67;6.07;;;;;;;0.27;76.95;95298.00;5064864;28;20507;-69
2021/01/08 11:20:37;;;;;;;8.27;7.13;;;;;;;0.20;77.22;95291.69;5081688;28;20472;-72
2021/01/08 11:23:04;;;;;;;6.37;5.67;;;;;;;0.01;78.82;95295.97;5077922;28;20480;-72
2021/01/08 11:25:31;;;;;;;6.97;6.23;;;;;;;-0.02;78.14;95294.44;5068809;28;20472;-72
2021/01/08 11:28:00;;;;;;;6.30;5.80;;;;;;;-0.20;78.35;95295.94;5082296;28;20453;-72
2021/01/08 11:30:27;;;;;;;7.70;7.10;;;;;;;-0.08;77.57;95294.97;5081170;28;20515;-72